Time;durP1;ratioP1;P1;durP2;ratioP2;P2;SDS_P1;SDS_P2;PMS_P1;PMS_P2;Temp;Humidity;BMP_temperature;BMP_pressure;BME280_temperature;BME280_humidity;BME280_pressure;Samples;Min_cycle;Max_cycle;Signal;HPM_P1;HPM_P2
2023/09/08 00:00:16;;;;;;;2.88;2.20;;;;;;;;;;4971331;28;20499;-74
2023/09/08 00:02:42;;;;;;;3.20;1.90;;;;;;;;;;4971529;28;20031;-73
2023/09/08 00:05:08;;;;;;;2.38;2.17;;;;;;;;;;4971428;28;20074;-74
2023/09/08 00:07:34;;;;;;;3.28;2.20;;;;;;;;;;4970166;28;20460;-74
2023/09/08 00:10:00;;;;;;;2.47;2.25;;;;;;;;;;4970076;28;20503;-73
2023/09/08 00:12:26;;;;;;;2.70;1.98;;;;;;;;;;4971519;28;20046;-73
2023/09/08 00:14:52;;;;;;;4.78;2.10;;;;;;;;;;4971356;28;20507;-75
2023/09/08 00:17:18;;;;;;;3.92;2.40;;;;;;;;;;4971070;28;20571;-72
2023/09/08 00:19:44;;;;;;;3.55;2.30;;;;;;;;;;4954600;28;20042;-74
2023/09/08 00:22:10;;;;;;;1.98;1.88;;;;;;;;;;4974554;28;20037;-73
2023/09/08 00:24:36;;;;;;;2.60;2.40;;;;;;;;;;4977332;28;20039;-72
2023/09/08 00:27:02;;;;;;;3.03;2.00;;;;;;;;;;4943604;28;20035;-73
2023/09/08 00:29:28;;;;;;;2.08;1.98;;;;;;;;;;4975488;28;20038;-74
2023/09/08 00:31:54;;;;;;;2.20;1.98;;;;;;;;;;4941851;28;20043;-74
2023/09/08 00:34:20;;;;;;;3.90;2.55;;;;;;;;;;4954020;28;20574;-73
2023/09/08 00:36:46;;;;;;;3.63;1.98;;;;;;;;;;4954170;28;20066;-71
2023/09/08 00:39:13;;;;;;;2.85;2.38;;;;;;;;;;4957104;28;20434;-73
2023/09/08 00:41:39;;;;;;;2.65;1.90;;;;;;;;;;4975159;28;20030;-73
2023/09/08 00:44:05;;;;;;;2.55;2.35;;;;;;;;;;4957731;28;20534;-73
2023/09/08 00:46:31;;;;;;;3.10;2.08;;;;;;;;;;4974697;28;20039;-73
2023/09/08 00:48:57;;;;;;;3.85;2.17;;;;;;;;;;4957351;28;20590;-73
2023/09/08 00:51:24;;;;;;;3.00;2.25;;;;;;;;;;4973362;28;20093;-73
2023/09/08 00:53:50;;;;;;;4.13;2.20;;;;;;;;;;4974872;28;20039;-73
2023/09/08 00:56:16;;;;;;;2.20;2.10;;;;;;;;;;4974545;28;20089;-74
2023/09/08 00:58:42;;;;;;;2.30;2.15;;;;;;;;;;4957425;28;20526;-73
2023/09/08 01:01:08;;;;;;;2.95;2.30;;;;;;;;;;4974536;28;20202;-73
2023/09/08 01:03:34;;;;;;;2.58;2.38;;;;;;;;;;4974330;28;20114;-73
2023/09/08 01:06:00;;;;;;;2.67;2.30;;;;;;;;;;4941520;28;20062;-73
2023/09/08 01:08:27;;;;;;;2.22;2.13;;;;;;;;;;4957029;28;20537;-75
2023/09/08 01:10:53;;;;;;;3.08;2.25;;;;;;;;;;4957237;28;20042;-73
2023/09/08 01:13:19;;;;;;;2.10;2.00;;;;;;;;;;4940801;28;20434;-73
2023/09/08 01:15:45;;;;;;;2.15;1.95;;;;;;;;;;4974572;28;20045;-73
2023/09/08 01:18:11;;;;;;;1.90;1.80;;;;;;;;;;4974387;28;20113;-74
2023/09/08 01:20:56;;;;;;;4.68;2.00;;;;;;;;;;4957196;28;20062;-72
2023/09/08 01:23:24;;;;;;;2.03;1.92;;;;;;;;;;4974026;28;20511;-75
2023/09/08 01:25:54;;;;;;;1.80;1.70;;;;;;;;;;4974270;28;20031;-72
2023/09/08 01:28:20;;;;;;;2.13;2.03;;;;;;;;;;4956763;28;20534;-76
2023/09/08 01:30:46;;;;;;;2.55;1.60;;;;;;;;;;4957029;28;20042;-74
2023/09/08 01:33:12;;;;;;;2.20;1.90;;;;;;;;;;4956967;28;20130;-73
2023/09/08 01:35:38;;;;;;;3.22;1.67;;;;;;;;;;4956811;28;20039;-73
2023/09/08 01:38:04;;;;;;;2.05;1.83;;;;;;;;;;4973736;28;20478;-74
2023/09/08 01:40:31;;;;;;;3.63;2.13;;;;;;;;;;4972684;28;20042;-73
2023/09/08 01:42:57;;;;;;;2.80;1.90;;;;;;;;;;4973848;28;20495;-73
2023/09/08 01:45:23;;;;;;;2.17;1.95;;;;;;;;;;4973648;28;20043;-74
2023/09/08 01:47:49;;;;;;;1.92;1.83;;;;;;;;;;4956422;28;20121;-74
2023/09/08 01:50:21;;;;;;;2.10;2.00;;;;;;;;;;4939297;28;20046;-73
2023/09/08 01:52:47;;;;;;;1.90;1.80;;;;;;;;;;4956707;28;20039;-73
2023/09/08 01:55:13;;;;;;;3.05;1.92;;;;;;;;;;4973640;28;20039;-73
2023/09/08 01:57:39;;;;;;;4.00;2.00;;;;;;;;;;4940499;28;20043;-72
2023/09/08 02:00:06;;;;;;;1.80;1.70;;;;;;;;;;4956891;28;20038;-74
2023/09/08 02:02:39;;;;;;;3.60;1.90;;;;;;;;;;4956329;28;20062;-73
2023/09/08 02:05:06;;;;;;;3.67;1.63;;;;;;;;;;4940181;28;20034;-72
2023/09/08 02:07:32;;;;;;;3.60;2.17;;;;;;;;;;4956317;28;20097;-73
2023/09/08 02:09:58;;;;;;;1.60;1.50;;;;;;;;;;4940024;28;20499;-73
2023/09/08 02:12:29;;;;;;;1.92;1.83;;;;;;;;;;4973413;28;20060;-75
2023/09/08 02:15:30;;;;;;;3.00;2.00;;;;;;;;;;4972491;28;20043;-74
2023/09/08 02:17:58;;;;;;;2.10;2.00;;;;;;;;;;4955596;28;20031;-73
2023/09/08 02:20:44;;;;;;;1.80;1.70;;;;;;;;;;4932403;28;20078;-73
2023/09/08 02:23:10;;;;;;;1.73;1.63;;;;;;;;;;4940235;28;20140;-74
2023/09/08 02:25:36;;;;;;;2.92;1.60;;;;;;;;;;4955829;28;20027;-74
2023/09/08 02:28:02;;;;;;;1.60;1.50;;;;;;;;;;4971961;28;20042;-74
2023/09/08 02:30:28;;;;;;;3.70;2.17;;;;;;;;;;4955500;28;20045;-75
2023/09/08 02:32:55;;;;;;;2.90;1.30;;;;;;;;;;4955950;28;20047;-74
2023/09/08 02:35:22;;;;;;;2.58;1.75;;;;;;;;;;4955349;28;20601;-73
2023/09/08 02:37:49;;;;;;;3.10;2.00;;;;;;;;;;4968418;28;20058;-74
2023/09/08 02:40:15;;;;;;;3.47;1.77;;;;;;;;;;4920664;29;20039;-74
2023/09/08 02:42:40;;;;;;;2.38;1.80;;;;;;;;;;4936130;29;20121;-75
2023/09/08 02:45:07;;;;;;;1.70;1.60;;;;;;;;;;4936099;29;20039;-73
2023/09/08 02:47:33;;;;;;;1.90;1.80;;;;;;;;;;4936177;29;20031;-73
2023/09/08 02:50:00;;;;;;;2.08;1.67;;;;;;;;;;4936228;29;20040;-73
2023/09/08 02:52:25;;;;;;;2.03;1.92;;;;;;;;;;4935917;29;20581;-74
2023/09/08 02:54:52;;;;;;;2.42;2.22;;;;;;;;;;4936126;29;20039;-74
2023/09/08 02:57:18;;;;;;;3.88;2.00;;;;;;;;;;4936031;29;20039;-73
2023/09/08 02:59:48;;;;;;;4.47;2.00;;;;;;;;;;4935638;28;20035;-73
2023/09/08 03:02:14;;;;;;;2.22;2.00;;;;;;;;;;4935900;29;20066;-75
2023/09/08 03:04:40;;;;;;;4.97;2.10;;;;;;;;;;4935497;29;20081;-75
2023/09/08 03:07:07;;;;;;;1.85;1.75;;;;;;;;;;4937969;28;20407;-76
2023/09/08 03:09:33;;;;;;;3.33;1.60;;;;;;;;;;4920011;29;20597;-76
2023/09/08 03:11:59;;;;;;;2.13;2.03;;;;;;;;;;4935356;29;20094;-77
2023/09/08 03:14:29;;;;;;;3.63;2.53;;;;;;;;;;4951328;29;20035;-76
2023/09/08 03:16:55;;;;;;;2.10;2.00;;;;;;;;;;4935792;29;20126;-76
2023/09/08 03:19:21;;;;;;;3.90;2.22;;;;;;;;;;4919371;29;20152;-76
2023/09/08 03:21:47;;;;;;;2.08;1.98;;;;;;;;;;4919910;29;20035;-76
2023/09/08 03:24:13;;;;;;;2.55;2.35;;;;;;;;;;4951531;29;20427;-77
2023/09/08 03:26:42;;;;;;;3.13;2.38;;;;;;;;;;4967426;28;20031;-76
2023/09/08 03:29:08;;;;;;;2.28;2.15;;;;;;;;;;4951345;29;20039;-76
2023/09/08 03:31:34;;;;;;;2.13;1.98;;;;;;;;;;4919863;29;20069;-75
2023/09/08 03:34:00;;;;;;;1.92;1.83;;;;;;;;;;4931520;28;20035;-75
2023/09/08 03:36:28;;;;;;;5.43;3.65;;;;;;;;;;4919033;28;20037;-76
2023/09/08 03:38:54;;;;;;;4.22;2.45;;;;;;;;;;4930956;28;20474;-75
2023/09/08 03:41:21;;;;;;;2.30;1.92;;;;;;;;;;4944405;28;20105;-76
2023/09/08 03:43:53;;;;;;;1.83;1.52;;;;;;;;;;4958849;28;20043;-76
2023/09/08 03:46:25;;;;;;;7.95;2.05;;;;;;;;;;4930010;28;20130;-76
2023/09/08 03:48:58;;;;;;;2.67;2.20;;;;;;;;;;4922461;28;20511;-76
2023/09/08 03:51:24;;;;;;;2.00;1.90;;;;;;;;;;4920328;28;20563;-76
2023/09/08 03:53:52;;;;;;;2.00;1.90;;;;;;;;;;4917321;29;20062;-76
2023/09/08 03:56:18;;;;;;;3.83;1.88;;;;;;;;;;4938922;28;20042;-75
2023/09/08 03:58:47;;;;;;;3.38;1.60;;;;;;;;;;4922090;28;20034;-75
2023/09/08 04:01:20;;;;;;;5.07;1.90;;;;;;;;;;4938735;28;20038;-76
2023/09/08 04:03:48;;;;;;;2.35;2.10;;;;;;;;;;4954246;28;20031;-76
2023/09/08 04:06:14;;;;;;;2.00;1.90;;;;;;;;;;4954574;28;20089;-76
2023/09/08 04:08:41;;;;;;;1.90;1.80;;;;;;;;;;4937817;28;20146;-76
2023/09/08 04:11:07;;;;;;;1.90;1.80;;;;;;;;;;4922724;28;20179;-75
2023/09/08 04:13:33;;;;;;;2.33;2.22;;;;;;;;;;4937747;28;20031;-76
2023/09/08 04:15:59;;;;;;;1.58;1.48;;;;;;;;;;4955293;28;20034;-76
2023/09/08 04:18:25;;;;;;;1.80;1.70;;;;;;;;;;4956041;28;20043;-75
2023/09/08 04:20:53;;;;;;;1.83;1.73;;;;;;;;;;4964464;28;20035;-75
2023/09/08 04:23:21;;;;;;;2.53;1.80;;;;;;;;;;4915467;29;20046;-75
2023/09/08 04:25:48;;;;;;;1.65;1.55;;;;;;;;;;4940598;29;20114;-75
2023/09/08 04:28:14;;;;;;;1.98;1.88;;;;;;;;;;4952291;29;20043;-75
2023/09/08 04:30:40;;;;;;;2.50;1.48;;;;;;;;;;4918389;29;20526;-75
2023/09/08 04:33:06;;;;;;;1.90;1.80;;;;;;;;;;4917374;29;20054;-76
2023/09/08 04:35:32;;;;;;;1.42;1.42;;;;;;;;;;4951772;29;20500;-75
2023/09/08 04:38:00;;;;;;;1.65;1.50;;;;;;;;;;4918585;29;20047;-75
2023/09/08 04:40:26;;;;;;;5.97;1.60;;;;;;;;;;4918883;29;20110;-75
2023/09/08 04:42:54;;;;;;;2.28;1.95;;;;;;;;;;4934930;29;20511;-75
2023/09/08 04:45:22;;;;;;;2.00;1.90;;;;;;;;;;4919250;29;20047;-76
2023/09/08 04:47:49;;;;;;;1.70;1.60;;;;;;;;;;4918076;29;20535;-75
2023/09/08 04:50:18;;;;;;;3.20;1.70;;;;;;;;;;4934738;29;20122;-76
2023/09/08 04:52:44;;;;;;;1.23;1.23;;;;;;;;;;4934452;29;20097;-75
2023/09/08 04:55:11;;;;;;;1.98;1.70;;;;;;;;;;4934418;29;20055;-75
2023/09/08 04:57:37;;;;;;;2.00;1.70;;;;;;;;;;4918590;29;20031;-76
2023/09/08 05:00:04;;;;;;;2.30;1.83;;;;;;;;;;4934578;29;20050;-76
2023/09/08 05:02:34;;;;;;;4.13;2.35;;;;;;;;;;4951778;29;20069;-76
2023/09/08 05:05:00;;;;;;;1.88;1.77;;;;;;;;;;4918741;28;20161;-76
2023/09/08 05:07:26;;;;;;;1.70;1.60;;;;;;;;;;4953378;28;20046;-76
2023/09/08 05:09:53;;;;;;;2.10;2.00;;;;;;;;;;4953800;28;20078;-76
2023/09/08 05:12:19;;;;;;;1.90;1.80;;;;;;;;;;4937460;28;20043;-75
2023/09/08 05:14:45;;;;;;;1.15;1.15;;;;;;;;;;4969217;28;20034;-75
2023/09/08 05:17:12;;;;;;;1.92;1.83;;;;;;;;;;4953565;28;20098;-75
2023/09/08 05:19:38;;;;;;;2.03;1.70;;;;;;;;;;4953256;28;20045;-75
2023/09/08 05:22:04;;;;;;;2.40;1.98;;;;;;;;;;4949611;28;20035;-74
2023/09/08 05:24:31;;;;;;;1.70;1.60;;;;;;;;;;4904893;29;20034;-75
2023/09/08 05:26:58;;;;;;;2.38;2.17;;;;;;;;;;4922081;29;20047;-76
2023/09/08 05:29:25;;;;;;;1.98;1.40;;;;;;;;;;4922194;29;20035;-75
2023/09/08 05:31:51;;;;;;;1.63;1.55;;;;;;;;;;4954820;29;20137;-76
2023/09/08 05:34:18;;;;;;;1.27;1.27;;;;;;;;;;4938289;29;20035;-74
2023/09/08 05:36:45;;;;;;;1.50;1.50;;;;;;;;;;4938112;29;20039;-74
2023/09/08 05:39:13;;;;;;;4.05;1.67;;;;;;;;;;4943935;28;20051;-74
2023/09/08 05:41:39;;;;;;;4.82;1.70;;;;;;;;;;4952207;28;20081;-75
2023/09/08 05:44:06;;;;;;;5.65;1.88;;;;;;;;;;4950120;28;20034;-74
2023/09/08 05:46:32;;;;;;;4.32;2.05;;;;;;;;;;4956333;28;20031;-73
2023/09/08 05:48:58;;;;;;;2.10;2.00;;;;;;;;;;4947018;28;20027;-75
2023/09/08 05:51:24;;;;;;;2.03;1.67;;;;;;;;;;4964694;28;20051;-74
2023/09/08 05:53:52;;;;;;;1.58;1.58;;;;;;;;;;4963502;28;20077;-74
2023/09/08 05:56:18;;;;;;;1.80;1.70;;;;;;;;;;4956716;28;20573;-74
2023/09/08 05:58:44;;;;;;;1.80;1.70;;;;;;;;;;4956175;28;20069;-73
2023/09/08 06:01:11;;;;;;;1.40;1.30;;;;;;;;;;4956097;28;20177;-73
2023/09/08 06:03:38;;;;;;;4.15;1.65;;;;;;;;;;4956079;28;20630;-73
2023/09/08 06:06:05;;;;;;;1.23;1.23;;;;;;;;;;4956205;28;20043;-73
2023/09/08 06:08:31;;;;;;;1.65;1.55;;;;;;;;;;4973548;28;20035;-75
2023/09/08 06:10:57;;;;;;;1.38;1.27;;;;;;;;;;4973406;28;20423;-74
2023/09/08 06:13:23;;;;;;;1.52;1.42;;;;;;;;;;4956268;28;20400;-74
2023/09/08 06:15:49;;;;;;;1.83;1.73;;;;;;;;;;4955829;28;20035;-74
2023/09/08 06:18:15;;;;;;;2.92;1.25;;;;;;;;;;4955692;28;20031;-73
2023/09/08 06:20:45;;;;;;;3.05;1.70;;;;;;;;;;4972807;28;20228;-74
2023/09/08 06:23:22;;;;;;;1.92;1.30;;;;;;;;;;4956433;28;20474;-75
2023/09/08 06:26:00;;;;;;;1.02;1.02;;;;;;;;;;4930934;28;20137;-77
2023/09/08 06:28:27;;;;;;;1.30;1.30;;;;;;;;;;4908635;28;20423;-73
2023/09/08 06:30:53;;;;;;;3.17;1.80;;;;;;;;;;4952232;23;20062;-75
2023/09/08 06:33:20;;;;;;;1.08;0.98;;;;;;;;;;4927515;29;20044;-75
2023/09/08 06:35:47;;;;;;;1.67;1.30;;;;;;;;;;4932426;28;20032;-75
2023/09/08 06:38:13;;;;;;;4.00;1.55;;;;;;;;;;4948825;23;20070;-70
2023/09/08 06:40:39;;;;;;;1.35;1.30;;;;;;;;;;4956837;28;20039;-70
2023/09/08 06:43:05;;;;;;;3.08;2.78;;;;;;;;;;4954220;28;20042;-70
2023/09/08 06:45:49;;;;;;;1.30;1.10;;;;;;;;;;4951384;29;20480;-71
2023/09/08 06:48:19;;;;;;;2.55;1.80;;;;;;;;;;4951388;28;20054;-72
2023/09/08 06:50:45;;;;;;;1.45;1.35;;;;;;;;;;4951168;28;20043;-72
2023/09/08 06:53:12;;;;;;;1.40;1.30;;;;;;;;;;4951361;29;20286;-71
2023/09/08 06:55:40;;;;;;;1.80;1.70;;;;;;;;;;4950947;29;20534;-71
2023/09/08 06:58:09;;;;;;;4.78;1.77;;;;;;;;;;4950622;29;20039;-71
2023/09/08 07:00:35;;;;;;;1.65;1.50;;;;;;;;;;4950903;29;20043;-71
2023/09/08 07:03:03;;;;;;;1.70;1.60;;;;;;;;;;4950952;29;20122;-71
2023/09/08 07:05:30;;;;;;;2.33;1.58;;;;;;;;;;4951305;29;20043;-71
2023/09/08 07:07:56;;;;;;;4.55;1.70;;;;;;;;;;4952399;29;20042;-70
2023/09/08 07:10:23;;;;;;;1.75;1.65;;;;;;;;;;4950933;29;20035;-71
2023/09/08 07:12:49;;;;;;;1.67;1.58;;;;;;;;;;4951780;29;20043;-70
2023/09/08 07:15:21;;;;;;;2.10;1.70;;;;;;;;;;4950239;28;20039;-77
2023/09/08 07:17:49;;;;;;;2.92;1.48;;;;;;;;;;4947468;28;20035;-75
2023/09/08 07:20:15;;;;;;;1.52;1.42;;;;;;;;;;4947626;29;20054;-75
2023/09/08 07:22:42;;;;;;;4.80;2.30;;;;;;;;;;4949042;28;20462;-76
2023/09/08 07:25:09;;;;;;;1.75;1.65;;;;;;;;;;4933118;29;20054;-77
2023/09/08 07:27:36;;;;;;;7.43;1.73;;;;;;;;;;4949514;28;20043;-76
2023/09/08 07:30:02;;;;;;;4.45;1.48;;;;;;;;;;4949566;29;20031;-76
2023/09/08 07:32:31;;;;;;;3.15;1.90;;;;;;;;;;4950154;29;20043;-76
2023/09/08 07:34:58;;;;;;;2.15;1.95;;;;;;;;;;4950960;29;20102;-76
2023/09/08 07:37:24;;;;;;;1.80;1.70;;;;;;;;;;4934980;29;20066;-75
2023/09/08 07:39:51;;;;;;;4.75;1.73;;;;;;;;;;4968348;28;20077;-76
2023/09/08 07:42:20;;;;;;;1.90;1.30;;;;;;;;;;4953663;28;20042;-76
2023/09/08 07:44:47;;;;;;;1.58;1.40;;;;;;;;;;4954280;28;20039;-75
2023/09/08 07:47:13;;;;;;;2.42;1.50;;;;;;;;;;4970988;28;20043;-76
2023/09/08 07:49:39;;;;;;;1.77;1.55;;;;;;;;;;4954154;28;20042;-75
2023/09/08 07:52:07;;;;;;;2.35;1.75;;;;;;;;;;4970368;28;20050;-76
2023/09/08 07:54:33;;;;;;;4.78;1.65;;;;;;;;;;4971485;28;20583;-76
2023/09/08 07:56:59;;;;;;;1.40;1.30;;;;;;;;;;4970735;28;20137;-75
2023/09/08 07:59:28;;;;;;;3.05;1.80;;;;;;;;;;4971805;28;20113;-76
2023/09/08 08:01:54;;;;;;;3.78;2.05;;;;;;;;;;4953515;28;20047;-75
2023/09/08 08:04:20;;;;;;;2.28;1.23;;;;;;;;;;4971548;28;20035;-76
2023/09/08 08:06:47;;;;;;;1.58;1.48;;;;;;;;;;4971144;28;20049;-75
2023/09/08 08:09:14;;;;;;;1.30;1.20;;;;;;;;;;4954006;28;20053;-76
2023/09/08 08:11:40;;;;;;;1.95;1.65;;;;;;;;;;4969672;28;20056;-75
2023/09/08 08:14:06;;;;;;;3.70;1.33;;;;;;;;;;4971645;28;20031;-76
2023/09/08 08:16:32;;;;;;;3.88;1.98;;;;;;;;;;4971333;28;20051;-76
2023/09/08 08:18:59;;;;;;;2.25;1.65;;;;;;;;;;4971166;28;20035;-76
2023/09/08 08:21:25;;;;;;;1.30;1.25;;;;;;;;;;4971257;28;20039;-76
2023/09/08 08:23:52;;;;;;;1.60;1.50;;;;;;;;;;4971073;28;20085;-75
2023/09/08 08:26:18;;;;;;;1.58;1.48;;;;;;;;;;4953941;28;20070;-76
2023/09/08 08:28:44;;;;;;;1.40;1.30;;;;;;;;;;4971425;28;20035;-75
2023/09/08 08:31:10;;;;;;;2.05;1.50;;;;;;;;;;4953922;28;20057;-76
2023/09/08 08:33:36;;;;;;;3.75;1.52;;;;;;;;;;4969989;28;20041;-75
2023/09/08 08:36:03;;;;;;;1.33;0.95;;;;;;;;;;4971629;28;20039;-76
2023/09/08 08:38:29;;;;;;;3.45;1.27;;;;;;;;;;4950178;28;20739;-76
2023/09/08 08:40:57;;;;;;;4.57;0.95;;;;;;;;;;4951603;28;20122;-76
2023/09/08 08:43:23;;;;;;;2.00;1.30;;;;;;;;;;4934680;29;20043;-76
2023/09/08 08:45:49;;;;;;;1.63;1.17;;;;;;;;;;4950368;29;20043;-76
2023/09/08 08:48:17;;;;;;;1.75;1.40;;;;;;;;;;4950296;29;20415;-76
2023/09/08 08:50:44;;;;;;;1.75;1.60;;;;;;;;;;4951295;28;20035;-75
2023/09/08 08:53:10;;;;;;;2.00;1.25;;;;;;;;;;4966406;28;20134;-75
2023/09/08 08:55:38;;;;;;;5.15;1.10;;;;;;;;;;4966421;28;20137;-76
2023/09/08 08:58:05;;;;;;;7.05;1.17;;;;;;;;;;4950866;28;20046;-75
2023/09/08 09:00:36;;;;;;;2.10;1.45;;;;;;;;;;4955604;28;20039;-76
2023/09/08 09:03:03;;;;;;;1.88;1.77;;;;;;;;;;4954108;29;20521;-75
2023/09/08 09:05:29;;;;;;;3.65;1.30;;;;;;;;;;4953938;29;20499;-76
2023/09/08 09:07:57;;;;;;;1.40;1.30;;;;;;;;;;4953698;29;20090;-75
2023/09/08 09:10:23;;;;;;;1.60;1.50;;;;;;;;;;4955131;28;20035;-75
2023/09/08 09:12:49;;;;;;;1.20;1.20;;;;;;;;;;4954889;28;20066;-75
2023/09/08 09:15:16;;;;;;;1.35;1.23;;;;;;;;;;4953972;29;20039;-75
2023/09/08 09:17:42;;;;;;;2.78;1.65;;;;;;;;;;4953619;29;20050;-75
2023/09/08 09:20:15;;;;;;;3.28;1.45;;;;;;;;;;4955657;28;20069;-76
2023/09/08 09:22:41;;;;;;;2.75;1.17;;;;;;;;;;4955052;28;20543;-76
2023/09/08 09:25:07;;;;;;;1.45;1.42;;;;;;;;;;4954806;28;20407;-76
2023/09/08 09:27:38;;;;;;;3.05;1.38;;;;;;;;;;4953729;29;20142;-76
2023/09/08 09:30:04;;;;;;;1.77;1.23;;;;;;;;;;4954743;29;20034;-75
2023/09/08 09:32:31;;;;;;;3.03;1.13;;;;;;;;;;4953019;29;20151;-76
2023/09/08 09:34:57;;;;;;;3.03;2.00;;;;;;;;;;4969366;28;20543;-76
2023/09/08 09:37:23;;;;;;;5.03;1.55;;;;;;;;;;4955375;28;20125;-76
2023/09/08 09:39:49;;;;;;;2.03;1.38;;;;;;;;;;4970837;28;20545;-76
2023/09/08 09:42:16;;;;;;;1.40;1.30;;;;;;;;;;4956932;28;20511;-76
2023/09/08 09:44:42;;;;;;;1.35;1.30;;;;;;;;;;4973927;28;20035;-76
2023/09/08 09:47:09;;;;;;;2.95;2.35;;;;;;;;;;4957014;28;20088;-76
2023/09/08 09:49:42;;;;;;;1.83;1.60;;;;;;;;;;4973082;28;20030;-76
2023/09/08 09:52:08;;;;;;;2.90;1.73;;;;;;;;;;4974081;28;20042;-76
2023/09/08 09:54:35;;;;;;;3.58;1.58;;;;;;;;;;4974272;28;20042;-76
2023/09/08 09:57:00;;;;;;;2.83;1.42;;;;;;;;;;4957065;28;20042;-75
2023/09/08 09:59:26;;;;;;;6.38;1.77;;;;;;;;;;4973252;28;20533;-76
2023/09/08 10:01:53;;;;;;;4.57;1.80;;;;;;;;;;4957155;28;20562;-76
2023/09/08 10:04:19;;;;;;;5.07;1.65;;;;;;;;;;4957442;28;20477;-76
2023/09/08 10:06:45;;;;;;;2.95;1.77;;;;;;;;;;4974353;28;20101;-76
2023/09/08 10:09:16;;;;;;;2.72;1.75;;;;;;;;;;4973763;28;20031;-76
2023/09/08 10:11:43;;;;;;;6.47;2.13;;;;;;;;;;4973058;28;20059;-77
2023/09/08 10:14:11;;;;;;;3.17;1.95;;;;;;;;;;4957777;28;20031;-76
2023/09/08 10:16:38;;;;;;;3.33;1.98;;;;;;;;;;4957155;28;20585;-76
2023/09/08 10:19:05;;;;;;;2.40;1.98;;;;;;;;;;4972689;28;20034;-76
2023/09/08 10:21:31;;;;;;;3.72;2.85;;;;;;;;;;4974727;28;20053;-76
2023/09/08 10:23:59;;;;;;;4.43;3.40;;;;;;;;;;4956880;28;20034;-77
2023/09/08 10:26:26;;;;;;;3.40;1.80;;;;;;;;;;4973677;28;20137;-76
2023/09/08 10:28:55;;;;;;;5.13;2.63;;;;;;;;;;4973822;28;20035;-77
2023/09/08 10:31:22;;;;;;;4.68;1.67;;;;;;;;;;4973586;28;20129;-76
2023/09/08 10:33:48;;;;;;;3.35;1.58;;;;;;;;;;4974273;28;20035;-76
2023/09/08 10:36:15;;;;;;;3.75;1.30;;;;;;;;;;4977038;28;20042;-77
2023/09/08 10:38:41;;;;;;;2.20;1.80;;;;;;;;;;4981711;28;20451;-75
2023/09/08 10:41:16;;;;;;;5.25;1.95;;;;;;;;;;4982374;28;20039;-76
2023/09/08 10:43:46;;;;;;;1.90;1.67;;;;;;;;;;4962549;28;20042;-76
2023/09/08 10:46:22;;;;;;;3.45;1.80;;;;;;;;;;4957340;28;20426;-77
2023/09/08 10:48:47;;;;;;;2.40;1.88;;;;;;;;;;4972171;28;20380;-77
2023/09/08 10:51:21;;;;;;;1.70;1.60;;;;;;;;;;4976110;28;20050;-77
2023/09/08 10:53:49;;;;;;;2.22;1.90;;;;;;;;;;4955810;28;20035;-77
2023/09/08 10:56:49;;;;;;;3.22;2.03;;;;;;;;;;4958483;28;20038;-78
2023/09/08 10:59:15;;;;;;;1.73;1.63;;;;;;;;;;4959190;28;20544;-76
2023/09/08 11:01:42;;;;;;;3.75;2.10;;;;;;;;;;4940879;28;20036;-79
2023/09/08 11:04:10;;;;;;;2.45;1.75;;;;;;;;;;4977255;28;20039;-77
2023/09/08 11:06:39;;;;;;;;;;;;;;;;;;4985787;28;20038;-76
2023/09/08 11:09:07;;;;;;;2.42;1.80;;;;;;;;;;4956652;28;20048;-75
2023/09/08 11:11:33;;;;;;;1.38;1.30;;;;;;;;;;4970506;28;20743;-76
2023/09/08 11:13:59;;;;;;;3.30;1.65;;;;;;;;;;4952813;28;20038;-75
2023/09/08 11:16:31;;;;;;;3.05;1.50;;;;;;;;;;4969450;28;20041;-75
2023/09/08 11:18:58;;;;;;;2.38;2.17;;;;;;;;;;4970607;28;20030;-75
2023/09/08 11:21:26;;;;;;;8.60;2.13;;;;;;;;;;4969929;28;20031;-75
2023/09/08 11:23:56;;;;;;;3.08;2.33;;;;;;;;;;4968694;28;20053;-76
2023/09/08 11:26:27;;;;;;;3.10;2.42;;;;;;;;;;4970621;28;20039;-77
2023/09/08 11:28:54;;;;;;;4.85;2.70;;;;;;;;;;4971790;28;20030;-73
2023/09/08 11:31:26;;;;;;;3.55;1.98;;;;;;;;;;4954375;28;20088;-74
2023/09/08 11:33:54;;;;;;;3.58;2.38;;;;;;;;;;4953997;28;20549;-75
2023/09/08 11:36:21;;;;;;;4.72;1.90;;;;;;;;;;4938788;28;20039;-74
2023/09/08 11:38:47;;;;;;;1.42;1.33;;;;;;;;;;4954342;28;20082;-76
2023/09/08 11:41:14;;;;;;;1.85;1.58;;;;;;;;;;4970662;28;20047;-75
2023/09/08 11:43:40;;;;;;;3.38;1.92;;;;;;;;;;4954813;28;20054;-75
2023/09/08 11:46:10;;;;;;;;;;;;;;;;;;4939300;28;20495;-76
2023/09/08 11:48:37;;;;;;;2.47;1.80;;;;;;;;;;4972304;28;19914;-76
2023/09/08 11:51:02;;;;;;;4.45;2.30;;;;;;;;;;4971260;28;20034;-75
2023/09/08 11:53:28;;;;;;;2.40;1.80;;;;;;;;;;4954584;28;20078;-76
2023/09/08 11:56:01;;;;;;;2.53;1.95;;;;;;;;;;4953950;28;20490;-76
2023/09/08 11:58:27;;;;;;;1.98;1.88;;;;;;;;;;4954320;28;20392;-75
2023/09/08 12:00:52;;;;;;;3.50;1.52;;;;;;;;;;4971096;28;20038;-75
2023/09/08 12:03:19;;;;;;;2.42;1.58;;;;;;;;;;4938034;28;20034;-76
2023/09/08 12:05:50;;;;;;;1.30;1.20;;;;;;;;;;4954877;28;20043;-75
2023/09/08 12:08:16;;;;;;;3.15;1.30;;;;;;;;;;4970100;28;20038;-76
2023/09/08 12:10:42;;;;;;;1.40;1.30;;;;;;;;;;4970035;28;20048;-76
2023/09/08 12:13:09;;;;;;;1.25;1.17;;;;;;;;;;4969971;28;20051;-75
2023/09/08 12:15:44;;;;;;;1.20;1.20;;;;;;;;;;4971451;28;20031;-75
2023/09/08 12:18:11;;;;;;;1.15;1.15;;;;;;;;;;4971211;28;20043;-76
2023/09/08 12:20:38;;;;;;;1.50;1.02;;;;;;;;;;4969882;28;20035;-75
2023/09/08 12:23:04;;;;;;;1.15;1.10;;;;;;;;;;4971338;28;20410;-75
2023/09/08 12:25:34;;;;;;;6.85;1.48;;;;;;;;;;4938387;28;20041;-75
2023/09/08 12:28:01;;;;;;;2.30;1.50;;;;;;;;;;4953799;28;20050;-75
2023/09/08 12:30:33;;;;;;;1.42;1.33;;;;;;;;;;4969731;28;20077;-75
2023/09/08 12:33:00;;;;;;;1.67;1.52;;;;;;;;;;4938224;28;20574;-75
2023/09/08 12:35:27;;;;;;;4.85;2.00;;;;;;;;;;4941906;28;20057;-76
2023/09/08 12:38:01;;;;;;;4.60;1.40;;;;;;;;;;4973729;28;20046;-75
2023/09/08 12:40:30;;;;;;;1.08;1.08;;;;;;;;;;4957597;28;20125;-75
2023/09/08 12:42:59;;;;;;;2.97;1.92;;;;;;;;;;4973717;28;20301;-76
2023/09/08 12:45:26;;;;;;;2.10;1.90;;;;;;;;;;4957537;28;20593;-76
2023/09/08 12:47:52;;;;;;;1.65;1.55;;;;;;;;;;4973777;28;20053;-76
2023/09/08 12:50:18;;;;;;;7.72;1.67;;;;;;;;;;4974723;28;20042;-76
2023/09/08 12:52:45;;;;;;;1.75;1.48;;;;;;;;;;4973677;28;20519;-75
2023/09/08 12:55:11;;;;;;;2.30;1.30;;;;;;;;;;4974464;28;20108;-76
2023/09/08 12:57:37;;;;;;;1.65;0.90;;;;;;;;;;4974873;28;20054;-75
2023/09/08 13:00:03;;;;;;;1.48;1.30;;;;;;;;;;4975359;28;20058;-76
2023/09/08 13:02:33;;;;;;;3.03;1.20;;;;;;;;;;4975054;28;20561;-75
2023/09/08 13:05:00;;;;;;;2.38;1.10;;;;;;;;;;4957105;28;20035;-76
2023/09/08 13:07:26;;;;;;;2.00;1.17;;;;;;;;;;4974598;28;20042;-75
2023/09/08 13:09:53;;;;;;;1.90;1.70;;;;;;;;;;4974577;28;20455;-75
2023/09/08 13:12:19;;;;;;;1.90;1.77;;;;;;;;;;4957016;28;20542;-75
2023/09/08 13:14:49;;;;;;;2.05;1.67;;;;;;;;;;4957243;28;20041;-75
2023/09/08 13:17:15;;;;;;;1.75;1.63;;;;;;;;;;4940947;28;20502;-74
2023/09/08 13:19:42;;;;;;;1.23;1.23;;;;;;;;;;4974417;28;20481;-74
2023/09/08 13:22:07;;;;;;;2.00;1.73;;;;;;;;;;4956760;28;20597;-74
2023/09/08 13:24:34;;;;;;;4.72;1.60;;;;;;;;;;4974249;28;20113;-74
2023/09/08 13:27:00;;;;;;;1.48;1.38;;;;;;;;;;4974080;28;20050;-76
2023/09/08 13:29:27;;;;;;;4.93;1.95;;;;;;;;;;4957072;28;20042;-75
2023/09/08 13:31:53;;;;;;;1.77;1.67;;;;;;;;;;4974229;28;20085;-75
2023/09/08 13:34:20;;;;;;;2.55;1.88;;;;;;;;;;4973040;28;20093;-75
2023/09/08 13:36:47;;;;;;;1.40;1.30;;;;;;;;;;4974069;28;20057;-75
2023/09/08 13:39:12;;;;;;;8.00;1.77;;;;;;;;;;4973376;28;20039;-74
2023/09/08 13:42:06;;;;;;;1.40;1.30;;;;;;;;;;4974116;28;20046;-75
2023/09/08 13:44:32;;;;;;;2.58;2.38;;;;;;;;;;4952835;28;20047;-75
2023/09/08 13:46:58;;;;;;;1.55;1.45;;;;;;;;;;4973792;28;20045;-75
2023/09/08 13:49:26;;;;;;;3.58;1.92;;;;;;;;;;4973791;28;20042;-75
2023/09/08 13:51:54;;;;;;;4.25;2.85;;;;;;;;;;4973654;28;20043;-74
2023/09/08 13:54:26;;;;;;;2.33;1.63;;;;;;;;;;4957443;28;20035;-75
2023/09/08 13:57:07;;;;;;;3.78;1.70;;;;;;;;;;4973813;28;20503;-75
2023/09/08 13:59:33;;;;;;;3.22;1.60;;;;;;;;;;4956260;28;20210;-75
2023/09/08 14:02:03;;;;;;;2.28;1.60;;;;;;;;;;4955748;28;20041;-75
2023/09/08 14:04:32;;;;;;;3.45;2.38;;;;;;;;;;4973299;28;20039;-75
2023/09/08 14:07:05;;;;;;;1.90;1.80;;;;;;;;;;4972464;28;20035;-75
2023/09/08 14:09:31;;;;;;;3.58;2.10;;;;;;;;;;4972468;28;20035;-76
2023/09/08 14:12:15;;;;;;;2.95;2.45;;;;;;;;;;4971910;28;20050;-75
2023/09/08 14:14:44;;;;;;;2.28;2.10;;;;;;;;;;4956061;28;20027;-75
2023/09/08 14:17:10;;;;;;;2.30;2.20;;;;;;;;;;4940007;28;20043;-74
2023/09/08 14:19:40;;;;;;;2.97;1.98;;;;;;;;;;4956466;28;20043;-74
2023/09/08 14:22:07;;;;;;;2.63;2.42;;;;;;;;;;4956049;28;20040;-75
2023/09/08 14:24:33;;;;;;;2.60;2.17;;;;;;;;;;4973964;28;20061;-74
2023/09/08 14:26:58;;;;;;;2.40;2.20;;;;;;;;;;4973926;28;20502;-74
2023/09/08 14:29:25;;;;;;;2.25;2.13;;;;;;;;;;4977214;28;20109;-74
2023/09/08 14:31:51;;;;;;;2.03;1.92;;;;;;;;;;4948640;28;20039;-75
2023/09/08 14:37:30;;;;;;;2.75;2.50;;;;;;;;;;4943245;28;19914;-75
2023/09/08 14:40:06;;;;;;;3.67;2.25;;;;;;;;;;4937795;28;20138;-75
2023/09/08 14:42:33;;;;;;;4.43;2.67;;;;;;;;;;4919490;28;20034;-73
2023/09/08 14:45:08;;;;;;;3.10;2.90;;;;;;;;;;4909482;28;20030;-74
2023/09/08 14:47:37;;;;;;;4.13;2.53;;;;;;;;;;4945760;28;20043;-74